sensor_id;sensor_type;location;lat;lon;timestamp;P1;durP1;ratioP1;P2;durP2;ratioP2
51034;SDS011;37062;52.546;13.230;2023-05-06T00:00:02;22.05;;;8.20;;
51034;SDS011;37062;52.546;13.230;2023-05-06T00:02:38;18.17;;;10.55;;
51034;SDS011;37062;52.546;13.230;2023-05-06T00:05:07;17.05;;;7.82;;
51034;SDS011;37062;52.546;13.230;2023-05-06T00:07:36;22.92;;;9.55;;
51034;SDS011;37062;52.546;13.230;2023-05-06T00:10:05;16.65;;;9.63;;
51034;SDS011;37062;52.546;13.230;2023-05-06T00:12:33;18.30;;;8.32;;
51034;SDS011;37062;52.546;13.230;2023-05-06T00:15:02;21.02;;;12.25;;
51034;SDS011;37062;52.546;13.230;2023-05-06T00:17:31;15.23;;;9.35;;
51034;SDS011;37062;52.546;13.230;2023-05-06T00:20:00;11.88;;;8.43;;
51034;SDS011;37062;52.546;13.230;2023-05-06T00:22:29;13.98;;;8.60;;
51034;SDS011;37062;52.546;13.230;2023-05-06T00:24:57;20.45;;;10.10;;
51034;SDS011;37062;52.546;13.230;2023-05-06T00:27:25;14.73;;;9.02;;
51034;SDS011;37062;52.546;13.230;2023-05-06T00:29:54;16.38;;;9.13;;
51034;SDS011;37062;52.546;13.230;2023-05-06T00:32:22;16.63;;;8.23;;
51034;SDS011;37062;52.546;13.230;2023-05-06T00:34:50;15.30;;;8.25;;
51034;SDS011;37062;52.546;13.230;2023-05-06T00:37:19;19.95;;;9.70;;
51034;SDS011;37062;52.546;13.230;2023-05-06T00:39:48;17.75;;;9.00;;
51034;SDS011;37062;52.546;13.230;2023-05-06T00:42:16;16.67;;;9.52;;
51034;SDS011;37062;52.546;13.230;2023-05-06T00:44:44;13.40;;;8.98;;
51034;SDS011;37062;52.546;13.230;2023-05-06T00:47:12;15.02;;;8.68;;
51034;SDS011;37062;52.546;13.230;2023-05-06T00:49:40;11.73;;;7.80;;
51034;SDS011;37062;52.546;13.230;2023-05-06T00:52:09;12.93;;;9.23;;
51034;SDS011;37062;52.546;13.230;2023-05-06T00:54:38;17.73;;;9.15;;
51034;SDS011;37062;52.546;13.230;2023-05-06T00:57:07;12.85;;;9.38;;
51034;SDS011;37062;52.546;13.230;2023-05-06T00:59:35;15.43;;;9.63;;
51034;SDS011;37062;52.546;13.230;2023-05-06T01:02:04;13.00;;;7.80;;
51034;SDS011;37062;52.546;13.230;2023-05-06T01:04:32;13.88;;;8.77;;
51034;SDS011;37062;52.546;13.230;2023-05-06T01:07:02;12.35;;;8.48;;
51034;SDS011;37062;52.546;13.230;2023-05-06T01:09:40;15.57;;;8.63;;
51034;SDS011;37062;52.546;13.230;2023-05-06T01:12:15;10.35;;;7.35;;
51034;SDS011;37062;52.546;13.230;2023-05-06T01:14:48;10.95;;;7.40;;
51034;SDS011;37062;52.546;13.230;2023-05-06T01:17:26;14.45;;;8.15;;
51034;SDS011;37062;52.546;13.230;2023-05-06T01:19:57;14.93;;;8.98;;
51034;SDS011;37062;52.546;13.230;2023-05-06T01:22:27;11.75;;;8.13;;
51034;SDS011;37062;52.546;13.230;2023-05-06T01:25:00;9.80;;;7.45;;
51034;SDS011;37062;52.546;13.230;2023-05-06T01:27:28;11.52;;;7.50;;
51034;SDS011;37062;52.546;13.230;2023-05-06T01:29:56;14.45;;;8.75;;
51034;SDS011;37062;52.546;13.230;2023-05-06T01:32:37;12.93;;;8.77;;
51034;SDS011;37062;52.546;13.230;2023-05-06T01:35:14;14.25;;;8.63;;
51034;SDS011;37062;52.546;13.230;2023-05-06T01:37:51;13.52;;;9.63;;
51034;SDS011;37062;52.546;13.230;2023-05-06T01:40:27;13.85;;;9.30;;
51034;SDS011;37062;52.546;13.230;2023-05-06T01:42:58;17.25;;;9.35;;
51034;SDS011;37062;52.546;13.230;2023-05-06T01:45:29;21.35;;;9.85;;
51034;SDS011;37062;52.546;13.230;2023-05-06T01:48:00;16.38;;;9.00;;
51034;SDS011;37062;52.546;13.230;2023-05-06T01:50:28;21.08;;;10.23;;
51034;SDS011;37062;52.546;13.230;2023-05-06T01:52:59;15.43;;;9.98;;
51034;SDS011;37062;52.546;13.230;2023-05-06T01:55:30;15.82;;;9.35;;
51034;SDS011;37062;52.546;13.230;2023-05-06T01:57:58;14.48;;;8.55;;
51034;SDS011;37062;52.546;13.230;2023-05-06T02:00:27;13.73;;;8.95;;
51034;SDS011;37062;52.546;13.230;2023-05-06T02:02:55;15.57;;;8.43;;
51034;SDS011;37062;52.546;13.230;2023-05-06T02:05:24;13.90;;;8.75;;
51034;SDS011;37062;52.546;13.230;2023-05-06T02:07:55;14.77;;;8.27;;
51034;SDS011;37062;52.546;13.230;2023-05-06T02:10:23;18.55;;;9.27;;
51034;SDS011;37062;52.546;13.230;2023-05-06T02:13:00;10.93;;;7.18;;
51034;SDS011;37062;52.546;13.230;2023-05-06T02:15:29;14.35;;;8.48;;
51034;SDS011;37062;52.546;13.230;2023-05-06T02:17:58;13.85;;;8.15;;
51034;SDS011;37062;52.546;13.230;2023-05-06T02:20:27;15.80;;;8.82;;
51034;SDS011;37062;52.546;13.230;2023-05-06T02:22:55;23.52;;;9.02;;
51034;SDS011;37062;52.546;13.230;2023-05-06T02:25:23;20.13;;;12.48;;
51034;SDS011;37062;52.546;13.230;2023-05-06T02:27:51;17.08;;;10.02;;
51034;SDS011;37062;52.546;13.230;2023-05-06T02:30:21;13.45;;;9.25;;
51034;SDS011;37062;52.546;13.230;2023-05-06T02:32:49;18.42;;;9.02;;
51034;SDS011;37062;52.546;13.230;2023-05-06T02:35:17;13.13;;;9.23;;
51034;SDS011;37062;52.546;13.230;2023-05-06T02:37:46;17.80;;;9.75;;
51034;SDS011;37062;52.546;13.230;2023-05-06T02:40:14;11.93;;;8.70;;
51034;SDS011;37062;52.546;13.230;2023-05-06T02:42:42;18.58;;;10.02;;
51034;SDS011;37062;52.546;13.230;2023-05-06T02:45:11;22.27;;;9.80;;
51034;SDS011;37062;52.546;13.230;2023-05-06T02:47:40;17.00;;;10.15;;
51034;SDS011;37062;52.546;13.230;2023-05-06T02:50:09;20.13;;;12.10;;
51034;SDS011;37062;52.546;13.230;2023-05-06T02:52:37;17.42;;;9.98;;
51034;SDS011;37062;52.546;13.230;2023-05-06T02:55:06;20.88;;;9.25;;
51034;SDS011;37062;52.546;13.230;2023-05-06T02:57:35;16.98;;;10.85;;
51034;SDS011;37062;52.546;13.230;2023-05-06T03:00:04;13.30;;;8.90;;
51034;SDS011;37062;52.546;13.230;2023-05-06T03:02:33;17.52;;;10.13;;
51034;SDS011;37062;52.546;13.230;2023-05-06T03:05:02;16.95;;;9.57;;
51034;SDS011;37062;52.546;13.230;2023-05-06T03:07:31;14.20;;;9.15;;
51034;SDS011;37062;52.546;13.230;2023-05-06T03:10:02;16.50;;;8.50;;
51034;SDS011;37062;52.546;13.230;2023-05-06T03:12:33;18.38;;;8.75;;
51034;SDS011;37062;52.546;13.230;2023-05-06T03:15:01;18.02;;;9.80;;
51034;SDS011;37062;52.546;13.230;2023-05-06T03:17:30;12.65;;;9.05;;
51034;SDS011;37062;52.546;13.230;2023-05-06T03:20:00;22.17;;;10.60;;
51034;SDS011;37062;52.546;13.230;2023-05-06T03:22:30;19.15;;;9.80;;
51034;SDS011;37062;52.546;13.230;2023-05-06T03:24:59;16.00;;;9.25;;
51034;SDS011;37062;52.546;13.230;2023-05-06T03:27:29;15.38;;;8.60;;
51034;SDS011;37062;52.546;13.230;2023-05-06T03:30:03;27.75;;;11.05;;
51034;SDS011;37062;52.546;13.230;2023-05-06T03:32:32;14.07;;;8.88;;
51034;SDS011;37062;52.546;13.230;2023-05-06T03:35:03;13.85;;;8.93;;
51034;SDS011;37062;52.546;13.230;2023-05-06T03:37:34;13.65;;;8.93;;
51034;SDS011;37062;52.546;13.230;2023-05-06T03:40:03;15.50;;;9.20;;
51034;SDS011;37062;52.546;13.230;2023-05-06T03:42:33;14.32;;;9.35;;
51034;SDS011;37062;52.546;13.230;2023-05-06T03:45:02;13.85;;;9.43;;
51034;SDS011;37062;52.546;13.230;2023-05-06T03:47:32;14.68;;;8.50;;
51034;SDS011;37062;52.546;13.230;2023-05-06T03:50:04;18.85;;;9.27;;
51034;SDS011;37062;52.546;13.230;2023-05-06T03:52:35;15.68;;;9.15;;
51034;SDS011;37062;52.546;13.230;2023-05-06T03:55:08;12.43;;;7.65;;
51034;SDS011;37062;52.546;13.230;2023-05-06T03:57:37;19.65;;;10.40;;
51034;SDS011;37062;52.546;13.230;2023-05-06T04:00:07;12.75;;;8.60;;
51034;SDS011;37062;52.546;13.230;2023-05-06T04:02:44;18.35;;;10.57;;
51034;SDS011;37062;52.546;13.230;2023-05-06T04:05:21;13.85;;;9.23;;
51034;SDS011;37062;52.546;13.230;2023-05-06T04:07:49;16.70;;;10.02;;
51034;SDS011;37062;52.546;13.230;2023-05-06T04:10:18;18.60;;;10.63;;
51034;SDS011;37062;52.546;13.230;2023-05-06T04:12:49;14.35;;;9.38;;
51034;SDS011;37062;52.546;13.230;2023-05-06T04:15:23;15.18;;;9.10;;
51034;SDS011;37062;52.546;13.230;2023-05-06T04:17:51;17.98;;;10.25;;
51034;SDS011;37062;52.546;13.230;2023-05-06T04:20:21;14.65;;;9.23;;
51034;SDS011;37062;52.546;13.230;2023-05-06T04:22:49;12.30;;;8.82;;
51034;SDS011;37062;52.546;13.230;2023-05-06T04:25:19;16.58;;;9.43;;
51034;SDS011;37062;52.546;13.230;2023-05-06T04:27:48;15.77;;;9.10;;
51034;SDS011;37062;52.546;13.230;2023-05-06T04:30:16;17.63;;;9.48;;
51034;SDS011;37062;52.546;13.230;2023-05-06T04:32:47;14.02;;;8.65;;
51034;SDS011;37062;52.546;13.230;2023-05-06T04:35:15;14.98;;;9.80;;
51034;SDS011;37062;52.546;13.230;2023-05-06T04:37:46;17.63;;;9.43;;
51034;SDS011;37062;52.546;13.230;2023-05-06T04:40:20;14.70;;;9.32;;
51034;SDS011;37062;52.546;13.230;2023-05-06T04:42:51;15.55;;;9.05;;
51034;SDS011;37062;52.546;13.230;2023-05-06T04:45:23;10.82;;;7.78;;
51034;SDS011;37062;52.546;13.230;2023-05-06T04:47:53;15.65;;;8.68;;
51034;SDS011;37062;52.546;13.230;2023-05-06T04:50:22;13.70;;;8.23;;
51034;SDS011;37062;52.546;13.230;2023-05-06T04:52:53;13.52;;;8.75;;
51034;SDS011;37062;52.546;13.230;2023-05-06T04:55:21;16.38;;;8.98;;
51034;SDS011;37062;52.546;13.230;2023-05-06T04:57:51;15.07;;;9.38;;
51034;SDS011;37062;52.546;13.230;2023-05-06T05:00:20;15.00;;;8.70;;
51034;SDS011;37062;52.546;13.230;2023-05-06T05:02:48;13.45;;;8.35;;
51034;SDS011;37062;52.546;13.230;2023-05-06T05:05:18;13.98;;;8.07;;
51034;SDS011;37062;52.546;13.230;2023-05-06T05:07:49;14.95;;;8.68;;
51034;SDS011;37062;52.546;13.230;2023-05-06T05:10:20;12.38;;;8.88;;
51034;SDS011;37062;52.546;13.230;2023-05-06T05:12:50;12.18;;;8.05;;
51034;SDS011;37062;52.546;13.230;2023-05-06T05:15:19;13.95;;;8.07;;
51034;SDS011;37062;52.546;13.230;2023-05-06T05:17:48;11.65;;;7.78;;
51034;SDS011;37062;52.546;13.230;2023-05-06T05:20:19;11.35;;;7.15;;
51034;SDS011;37062;52.546;13.230;2023-05-06T05:22:47;11.85;;;8.15;;
51034;SDS011;37062;52.546;13.230;2023-05-06T05:25:15;10.27;;;7.93;;
51034;SDS011;37062;52.546;13.230;2023-05-06T05:27:48;13.48;;;8.20;;
51034;SDS011;37062;52.546;13.230;2023-05-06T05:30:16;14.00;;;8.32;;
51034;SDS011;37062;52.546;13.230;2023-05-06T05:32:46;10.60;;;7.60;;
51034;SDS011;37062;52.546;13.230;2023-05-06T05:35:15;14.48;;;8.60;;
51034;SDS011;37062;52.546;13.230;2023-05-06T05:37:45;13.48;;;8.02;;
51034;SDS011;37062;52.546;13.230;2023-05-06T05:40:15;14.10;;;7.95;;
51034;SDS011;37062;52.546;13.230;2023-05-06T05:42:44;13.07;;;8.38;;
51034;SDS011;37062;52.546;13.230;2023-05-06T05:45:22;12.32;;;7.78;;
51034;SDS011;37062;52.546;13.230;2023-05-06T05:47:51;11.73;;;8.32;;
51034;SDS011;37062;52.546;13.230;2023-05-06T05:50:21;13.90;;;8.35;;
51034;SDS011;37062;52.546;13.230;2023-05-06T05:52:52;13.45;;;8.10;;
51034;SDS011;37062;52.546;13.230;2023-05-06T05:55:21;11.57;;;7.88;;
51034;SDS011;37062;52.546;13.230;2023-05-06T05:57:50;13.52;;;8.57;;
51034;SDS011;37062;52.546;13.230;2023-05-06T06:00:21;13.13;;;8.43;;
51034;SDS011;37062;52.546;13.230;2023-05-06T06:02:55;13.43;;;7.43;;
51034;SDS011;37062;52.546;13.230;2023-05-06T06:05:24;12.23;;;8.13;;
51034;SDS011;37062;52.546;13.230;2023-05-06T06:07:52;11.23;;;8.27;;
51034;SDS011;37062;52.546;13.230;2023-05-06T06:10:23;15.15;;;8.30;;
51034;SDS011;37062;52.546;13.230;2023-05-06T06:12:51;12.35;;;8.18;;
51034;SDS011;37062;52.546;13.230;2023-05-06T06:15:25;13.15;;;8.38;;
51034;SDS011;37062;52.546;13.230;2023-05-06T06:17:53;12.65;;;8.02;;
51034;SDS011;37062;52.546;13.230;2023-05-06T06:20:24;12.60;;;7.88;;
51034;SDS011;37062;52.546;13.230;2023-05-06T06:22:52;13.13;;;7.72;;
51034;SDS011;37062;52.546;13.230;2023-05-06T06:25:21;11.07;;;8.07;;
51034;SDS011;37062;52.546;13.230;2023-05-06T06:27:49;12.77;;;7.63;;
51034;SDS011;37062;52.546;13.230;2023-05-06T06:30:17;12.48;;;8.73;;
51034;SDS011;37062;52.546;13.230;2023-05-06T06:32:47;11.50;;;8.07;;
51034;SDS011;37062;52.546;13.230;2023-05-06T06:35:16;14.95;;;7.70;;
51034;SDS011;37062;52.546;13.230;2023-05-06T06:37:46;11.68;;;7.47;;
51034;SDS011;37062;52.546;13.230;2023-05-06T06:40:14;10.02;;;7.32;;
51034;SDS011;37062;52.546;13.230;2023-05-06T06:42:42;11.32;;;8.05;;
51034;SDS011;37062;52.546;13.230;2023-05-06T06:45:30;11.68;;;7.18;;
51034;SDS011;37062;52.546;13.230;2023-05-06T06:48:00;10.40;;;7.47;;
51034;SDS011;37062;52.546;13.230;2023-05-06T06:50:28;11.60;;;8.32;;
51034;SDS011;37062;52.546;13.230;2023-05-06T06:52:56;12.27;;;8.10;;
51034;SDS011;37062;52.546;13.230;2023-05-06T06:55:24;9.90;;;6.72;;
51034;SDS011;37062;52.546;13.230;2023-05-06T06:57:52;11.10;;;6.80;;
51034;SDS011;37062;52.546;13.230;2023-05-06T07:00:22;11.98;;;8.18;;
51034;SDS011;37062;52.546;13.230;2023-05-06T07:02:50;10.02;;;7.55;;
51034;SDS011;37062;52.546;13.230;2023-05-06T07:05:20;11.70;;;8.18;;
51034;SDS011;37062;52.546;13.230;2023-05-06T07:07:49;12.38;;;7.85;;
51034;SDS011;37062;52.546;13.230;2023-05-06T07:10:17;10.90;;;7.47;;
51034;SDS011;37062;52.546;13.230;2023-05-06T07:12:45;14.05;;;8.60;;
51034;SDS011;37062;52.546;13.230;2023-05-06T07:15:14;10.63;;;7.63;;
51034;SDS011;37062;52.546;13.230;2023-05-06T07:17:42;13.38;;;8.57;;
51034;SDS011;37062;52.546;13.230;2023-05-06T07:20:11;13.15;;;8.80;;
51034;SDS011;37062;52.546;13.230;2023-05-06T07:22:41;12.50;;;8.43;;
51034;SDS011;37062;52.546;13.230;2023-05-06T07:25:11;10.68;;;7.85;;
51034;SDS011;37062;52.546;13.230;2023-05-06T07:27:39;11.38;;;8.15;;
51034;SDS011;37062;52.546;13.230;2023-05-06T07:30:07;12.40;;;8.32;;
51034;SDS011;37062;52.546;13.230;2023-05-06T07:32:36;15.63;;;8.48;;
51034;SDS011;37062;52.546;13.230;2023-05-06T07:35:06;11.35;;;8.15;;
51034;SDS011;37062;52.546;13.230;2023-05-06T07:37:36;12.00;;;7.90;;
51034;SDS011;37062;52.546;13.230;2023-05-06T07:40:06;13.27;;;9.35;;
51034;SDS011;37062;52.546;13.230;2023-05-06T07:42:35;13.05;;;8.65;;
51034;SDS011;37062;52.546;13.230;2023-05-06T07:45:06;15.68;;;8.82;;
51034;SDS011;37062;52.546;13.230;2023-05-06T07:47:35;14.45;;;10.57;;
51034;SDS011;37062;52.546;13.230;2023-05-06T07:50:04;12.77;;;8.80;;
51034;SDS011;37062;52.546;13.230;2023-05-06T07:52:33;14.15;;;9.63;;
51034;SDS011;37062;52.546;13.230;2023-05-06T07:55:01;16.83;;;9.75;;
51034;SDS011;37062;52.546;13.230;2023-05-06T07:57:31;15.10;;;9.80;;
51034;SDS011;37062;52.546;13.230;2023-05-06T07:59:59;14.07;;;10.43;;
51034;SDS011;37062;52.546;13.230;2023-05-06T08:02:37;11.70;;;9.27;;
51034;SDS011;37062;52.546;13.230;2023-05-06T08:05:11;14.60;;;10.27;;
51034;SDS011;37062;52.546;13.230;2023-05-06T08:07:39;9.02;;;7.53;;
51034;SDS011;37062;52.546;13.230;2023-05-06T08:10:08;13.57;;;9.07;;
51034;SDS011;37062;52.546;13.230;2023-05-06T08:12:38;13.60;;;8.82;;
51034;SDS011;37062;52.546;13.230;2023-05-06T08:15:07;13.10;;;8.65;;
51034;SDS011;37062;52.546;13.230;2023-05-06T08:17:37;10.15;;;8.07;;
51034;SDS011;37062;52.546;13.230;2023-05-06T08:20:05;13.55;;;8.23;;
51034;SDS011;37062;52.546;13.230;2023-05-06T08:22:34;11.52;;;8.45;;
51034;SDS011;37062;52.546;13.230;2023-05-06T08:25:02;12.07;;;8.55;;
51034;SDS011;37062;52.546;13.230;2023-05-06T08:27:31;9.45;;;7.68;;
51034;SDS011;37062;52.546;13.230;2023-05-06T08:30:01;11.13;;;7.80;;
51034;SDS011;37062;52.546;13.230;2023-05-06T08:32:29;11.00;;;8.93;;
51034;SDS011;37062;52.546;13.230;2023-05-06T08:34:57;8.43;;;7.55;;
51034;SDS011;37062;52.546;13.230;2023-05-06T08:37:26;9.82;;;7.60;;
51034;SDS011;37062;52.546;13.230;2023-05-06T08:39:55;9.30;;;8.30;;
51034;SDS011;37062;52.546;13.230;2023-05-06T08:42:25;11.30;;;8.30;;
51034;SDS011;37062;52.546;13.230;2023-05-06T08:44:56;10.48;;;7.55;;
51034;SDS011;37062;52.546;13.230;2023-05-06T08:47:27;9.98;;;8.43;;
51034;SDS011;37062;52.546;13.230;2023-05-06T08:49:55;9.10;;;7.95;;
51034;SDS011;37062;52.546;13.230;2023-05-06T08:52:23;11.10;;;9.48;;
51034;SDS011;37062;52.546;13.230;2023-05-06T08:54:52;10.75;;;8.95;;
51034;SDS011;37062;52.546;13.230;2023-05-06T08:57:26;9.00;;;8.10;;
51034;SDS011;37062;52.546;13.230;2023-05-06T08:59:56;9.85;;;7.95;;
51034;SDS011;37062;52.546;13.230;2023-05-06T09:02:26;9.95;;;8.23;;
51034;SDS011;37062;52.546;13.230;2023-05-06T09:04:55;9.30;;;8.32;;
51034;SDS011;37062;52.546;13.230;2023-05-06T09:07:23;9.93;;;8.57;;
51034;SDS011;37062;52.546;13.230;2023-05-06T09:09:51;12.25;;;9.10;;
51034;SDS011;37062;52.546;13.230;2023-05-06T09:12:20;11.70;;;9.38;;
51034;SDS011;37062;52.546;13.230;2023-05-06T09:14:50;9.82;;;8.40;;
51034;SDS011;37062;52.546;13.230;2023-05-06T09:17:18;12.10;;;9.30;;
51034;SDS011;37062;52.546;13.230;2023-05-06T09:19:52;13.10;;;10.35;;
51034;SDS011;37062;52.546;13.230;2023-05-06T09:22:22;11.30;;;9.98;;
51034;SDS011;37062;52.546;13.230;2023-05-06T09:24:52;13.30;;;10.63;;
51034;SDS011;37062;52.546;13.230;2023-05-06T09:27:23;10.60;;;9.50;;
51034;SDS011;37062;52.546;13.230;2023-05-06T09:29:59;12.02;;;10.18;;
51034;SDS011;37062;52.546;13.230;2023-05-06T09:32:28;10.13;;;8.82;;
51034;SDS011;37062;52.546;13.230;2023-05-06T09:34:58;14.52;;;10.95;;
51034;SDS011;37062;52.546;13.230;2023-05-06T09:37:26;12.52;;;9.95;;
51034;SDS011;37062;52.546;13.230;2023-05-06T09:39:55;10.70;;;9.25;;
51034;SDS011;37062;52.546;13.230;2023-05-06T09:42:26;10.68;;;8.85;;
51034;SDS011;37062;52.546;13.230;2023-05-06T09:44:57;10.48;;;9.13;;
51034;SDS011;37062;52.546;13.230;2023-05-06T09:47:28;9.52;;;8.25;;
51034;SDS011;37062;52.546;13.230;2023-05-06T09:50:01;10.80;;;9.70;;
51034;SDS011;37062;52.546;13.230;2023-05-06T09:52:30;10.30;;;9.15;;
51034;SDS011;37062;52.546;13.230;2023-05-06T09:54:59;10.65;;;9.30;;
51034;SDS011;37062;52.546;13.230;2023-05-06T09:57:29;11.35;;;9.52;;
51034;SDS011;37062;52.546;13.230;2023-05-06T09:59:58;12.02;;;9.82;;
51034;SDS011;37062;52.546;13.230;2023-05-06T10:02:38;10.23;;;9.05;;
51034;SDS011;37062;52.546;13.230;2023-05-06T10:05:09;10.00;;;8.98;;
51034;SDS011;37062;52.546;13.230;2023-05-06T10:07:40;13.10;;;9.40;;
51034;SDS011;37062;52.546;13.230;2023-05-06T10:10:08;11.65;;;9.73;;
51034;SDS011;37062;52.546;13.230;2023-05-06T10:12:38;10.82;;;9.40;;
51034;SDS011;37062;52.546;13.230;2023-05-06T10:15:07;11.48;;;9.40;;
51034;SDS011;37062;52.546;13.230;2023-05-06T10:17:36;11.00;;;9.20;;
51034;SDS011;37062;52.546;13.230;2023-05-06T10:20:09;13.73;;;10.70;;
51034;SDS011;37062;52.546;13.230;2023-05-06T10:22:42;11.38;;;9.85;;
51034;SDS011;37062;52.546;13.230;2023-05-06T10:25:20;10.90;;;9.35;;
51034;SDS011;37062;52.546;13.230;2023-05-06T10:27:56;11.75;;;9.70;;
51034;SDS011;37062;52.546;13.230;2023-05-06T10:30:25;9.75;;;8.75;;
51034;SDS011;37062;52.546;13.230;2023-05-06T10:32:56;10.80;;;8.77;;
51034;SDS011;37062;52.546;13.230;2023-05-06T10:35:41;10.48;;;8.95;;
51034;SDS011;37062;52.546;13.230;2023-05-06T10:38:15;9.65;;;8.65;;
51034;SDS011;37062;52.546;13.230;2023-05-06T10:40:48;9.82;;;8.82;;
51034;SDS011;37062;52.546;13.230;2023-05-06T10:43:23;10.70;;;8.98;;
51034;SDS011;37062;52.546;13.230;2023-05-06T10:45:57;11.20;;;9.50;;
51034;SDS011;37062;52.546;13.230;2023-05-06T10:48:27;10.02;;;9.02;;
51034;SDS011;37062;52.546;13.230;2023-05-06T10:53:58;10.93;;;8.90;;
51034;SDS011;37062;52.546;13.230;2023-05-06T10:56:30;10.77;;;9.02;;
51034;SDS011;37062;52.546;13.230;2023-05-06T10:59:03;9.98;;;8.88;;
51034;SDS011;37062;52.546;13.230;2023-05-06T11:01:36;10.25;;;8.88;;
51034;SDS011;37062;52.546;13.230;2023-05-06T11:04:06;10.45;;;8.88;;
51034;SDS011;37062;52.546;13.230;2023-05-06T11:06:38;10.23;;;9.20;;
51034;SDS011;37062;52.546;13.230;2023-05-06T11:09:14;10.32;;;7.70;;
51034;SDS011;37062;52.546;13.230;2023-05-06T11:11:47;10.98;;;8.68;;
51034;SDS011;37062;52.546;13.230;2023-05-06T11:14:27;11.02;;;8.60;;
51034;SDS011;37062;52.546;13.230;2023-05-06T11:16:57;9.38;;;7.80;;
51034;SDS011;37062;52.546;13.230;2023-05-06T11:19:27;7.35;;;6.63;;
51034;SDS011;37062;52.546;13.230;2023-05-06T11:21:58;9.63;;;7.45;;
51034;SDS011;37062;52.546;13.230;2023-05-06T11:24:30;10.57;;;7.32;;
51034;SDS011;37062;52.546;13.230;2023-05-06T11:27:04;7.43;;;6.72;;
51034;SDS011;37062;52.546;13.230;2023-05-06T11:29:33;8.75;;;7.38;;
51034;SDS011;37062;52.546;13.230;2023-05-06T11:32:01;9.43;;;7.60;;
51034;SDS011;37062;52.546;13.230;2023-05-06T11:34:31;7.97;;;7.15;;
51034;SDS011;37062;52.546;13.230;2023-05-06T11:37:02;7.80;;;7.00;;
51034;SDS011;37062;52.546;13.230;2023-05-06T11:39:32;12.55;;;8.20;;
51034;SDS011;37062;52.546;13.230;2023-05-06T11:42:06;7.55;;;6.30;;
51034;SDS011;37062;52.546;13.230;2023-05-06T11:44:35;8.25;;;6.45;;
51034;SDS011;37062;52.546;13.230;2023-05-06T11:47:05;8.70;;;6.10;;
51034;SDS011;37062;52.546;13.230;2023-05-06T11:49:35;6.75;;;5.68;;
51034;SDS011;37062;52.546;13.230;2023-05-06T11:52:05;7.63;;;6.20;;
51034;SDS011;37062;52.546;13.230;2023-05-06T11:54:35;6.93;;;6.22;;
51034;SDS011;37062;52.546;13.230;2023-05-06T11:57:06;8.07;;;5.43;;
51034;SDS011;37062;52.546;13.230;2023-05-06T11:59:35;6.38;;;5.10;;
51034;SDS011;37062;52.546;13.230;2023-05-06T12:02:05;7.22;;;5.13;;
51034;SDS011;37062;52.546;13.230;2023-05-06T12:04:38;5.25;;;4.75;;
51034;SDS011;37062;52.546;13.230;2023-05-06T12:07:09;5.03;;;4.40;;
51034;SDS011;37062;52.546;13.230;2023-05-06T12:09:40;6.10;;;4.40;;
51034;SDS011;37062;52.546;13.230;2023-05-06T12:12:09;5.85;;;4.30;;
51034;SDS011;37062;52.546;13.230;2023-05-06T12:14:38;4.30;;;3.90;;
51034;SDS011;37062;52.546;13.230;2023-05-06T12:17:07;5.20;;;4.35;;
51034;SDS011;37062;52.546;13.230;2023-05-06T12:19:36;4.97;;;4.47;;
51034;SDS011;37062;52.546;13.230;2023-05-06T12:22:26;5.32;;;4.32;;
51034;SDS011;37062;52.546;13.230;2023-05-06T12:24:54;5.18;;;4.10;;
51034;SDS011;37062;52.546;13.230;2023-05-06T12:27:29;4.20;;;3.65;;
51034;SDS011;37062;52.546;13.230;2023-05-06T12:29:58;4.40;;;3.53;;
51034;SDS011;37062;52.546;13.230;2023-05-06T12:32:29;4.32;;;3.70;;
51034;SDS011;37062;52.546;13.230;2023-05-06T12:34:57;5.18;;;3.80;;
51034;SDS011;37062;52.546;13.230;2023-05-06T12:37:32;3.80;;;3.40;;
51034;SDS011;37062;52.546;13.230;2023-05-06T12:40:00;4.80;;;3.50;;
51034;SDS011;37062;52.546;13.230;2023-05-06T12:42:29;4.35;;;3.95;;
51034;SDS011;37062;52.546;13.230;2023-05-06T12:44:57;4.32;;;3.92;;
51034;SDS011;37062;52.546;13.230;2023-05-06T12:47:39;8.18;;;5.60;;
51034;SDS011;37062;52.546;13.230;2023-05-06T12:50:31;6.50;;;4.53;;
51034;SDS011;37062;52.546;13.230;2023-05-06T12:53:03;4.32;;;3.50;;
51034;SDS011;37062;52.546;13.230;2023-05-06T12:55:32;3.72;;;3.40;;
51034;SDS011;37062;52.546;13.230;2023-05-06T12:58:01;4.40;;;3.70;;
51034;SDS011;37062;52.546;13.230;2023-05-06T13:00:30;4.10;;;3.70;;
51034;SDS011;37062;52.546;13.230;2023-05-06T13:02:58;4.65;;;3.85;;
51034;SDS011;37062;52.546;13.230;2023-05-06T13:05:26;5.50;;;4.10;;
51034;SDS011;37062;52.546;13.230;2023-05-06T13:07:55;4.35;;;3.47;;
51034;SDS011;37062;52.546;13.230;2023-05-06T13:10:24;5.93;;;3.95;;
51034;SDS011;37062;52.546;13.230;2023-05-06T13:12:52;4.45;;;3.67;;
51034;SDS011;37062;52.546;13.230;2023-05-06T13:15:21;4.30;;;3.88;;
51034;SDS011;37062;52.546;13.230;2023-05-06T13:17:49;6.20;;;3.88;;
51034;SDS011;37062;52.546;13.230;2023-05-06T13:20:17;4.15;;;3.75;;
51034;SDS011;37062;52.546;13.230;2023-05-06T13:22:46;7.35;;;4.75;;
51034;SDS011;37062;52.546;13.230;2023-05-06T13:25:20;7.60;;;4.90;;
51034;SDS011;37062;52.546;13.230;2023-05-06T13:27:50;5.00;;;3.83;;
51034;SDS011;37062;52.546;13.230;2023-05-06T13:30:18;14.93;;;7.88;;
51034;SDS011;37062;52.546;13.230;2023-05-06T13:32:47;5.40;;;3.53;;
51034;SDS011;37062;52.546;13.230;2023-05-06T13:35:15;4.88;;;4.28;;
51034;SDS011;37062;52.546;13.230;2023-05-06T13:37:43;5.95;;;4.30;;
51034;SDS011;37062;52.546;13.230;2023-05-06T13:40:12;6.63;;;4.22;;
51034;SDS011;37062;52.546;13.230;2023-05-06T13:42:40;4.78;;;4.22;;
51034;SDS011;37062;52.546;13.230;2023-05-06T13:45:10;4.80;;;4.13;;
51034;SDS011;37062;52.546;13.230;2023-05-06T13:47:38;5.15;;;3.65;;
51034;SDS011;37062;52.546;13.230;2023-05-06T13:50:08;6.72;;;4.47;;
51034;SDS011;37062;52.546;13.230;2023-05-06T13:52:37;4.50;;;4.10;;
51034;SDS011;37062;52.546;13.230;2023-05-06T13:55:06;5.78;;;4.57;;
51034;SDS011;37062;52.546;13.230;2023-05-06T13:57:35;5.00;;;3.97;;
51034;SDS011;37062;52.546;13.230;2023-05-06T14:00:04;5.72;;;3.70;;
51034;SDS011;37062;52.546;13.230;2023-05-06T14:02:34;5.28;;;4.47;;
51034;SDS011;37062;52.546;13.230;2023-05-06T14:05:03;4.78;;;4.00;;
51034;SDS011;37062;52.546;13.230;2023-05-06T14:07:32;6.22;;;4.53;;
51034;SDS011;37062;52.546;13.230;2023-05-06T14:10:00;5.25;;;4.05;;
51034;SDS011;37062;52.546;13.230;2023-05-06T14:12:28;4.35;;;3.58;;
51034;SDS011;37062;52.546;13.230;2023-05-06T14:14:56;5.28;;;3.80;;
51034;SDS011;37062;52.546;13.230;2023-05-06T14:17:25;6.05;;;4.30;;
51034;SDS011;37062;52.546;13.230;2023-05-06T14:19:54;5.00;;;3.80;;
51034;SDS011;37062;52.546;13.230;2023-05-06T14:22:23;5.32;;;3.40;;
51034;SDS011;37062;52.546;13.230;2023-05-06T14:24:51;4.75;;;3.83;;
51034;SDS011;37062;52.546;13.230;2023-05-06T14:27:19;4.70;;;3.40;;
51034;SDS011;37062;52.546;13.230;2023-05-06T14:29:48;5.72;;;3.85;;
51034;SDS011;37062;52.546;13.230;2023-05-06T14:32:16;6.63;;;3.38;;
51034;SDS011;37062;52.546;13.230;2023-05-06T14:34:44;5.30;;;3.30;;
51034;SDS011;37062;52.546;13.230;2023-05-06T14:37:14;3.90;;;3.50;;
51034;SDS011;37062;52.546;13.230;2023-05-06T14:39:42;5.05;;;3.22;;
51034;SDS011;37062;52.546;13.230;2023-05-06T14:42:10;3.95;;;3.10;;